< Typhoon 201928 2019 Season Typhoon 202001 >
Typhoon 201929 (PHANFONE)
General InformationTrack Information on Google MapsDetailed Wind InformationForecast History on Google MapsAccess Analytics MapList of All Images || NewsDisaster Info.WeblogTrackbackTyphoon FrontTwiphoonTyphoon Now!Typhoon ImaginationJMA Disaster Info. XMLResourceGoogle EarthGE AnimationAtom FeedGeoJSON
Detalied Best Track (Time Zone = UTC)
Year Month Day Hour Lat. Long. Pressure (hPa) Wind (kt) Class Image Chart
2019 12 19 12 4.7 151.4 1006 0 2 Image Chart
2019 12 19 18 4.6 150.0 1004 0 2 Image Chart
2019 12 20 00 4.6 148.8 1006 0 2 Image Chart
2019 12 20 06 4.6 147.6 1004 0 2 Image Chart
2019 12 20 12 4.6 146.3 1004 0 2 Image Chart
2019 12 20 18 4.6 145.1 1004 0 2 Image Chart
2019 12 21 00 4.8 143.7 1004 0 2 Image Chart
2019 12 21 06 5.2 142.5 1004 0 2 Image Chart
2019 12 21 12 5.6 141.5 1004 0 2 Image Chart
2019 12 21 18 6.0 140.7 1004 0 2 Image Chart
2019 12 22 00 6.5 139.7 1004 0 2 Image Chart
2019 12 22 06 7.4 138.4 1002 0 2 Image Chart
2019 12 22 12 8.7 136.9 1002 35 3 Image Chart
2019 12 22 18 9.6 135.0 1002 35 3 Image Chart
2019 12 23 00 10.0 133.4 1000 40 3 Image Chart
2019 12 23 06 10.2 132.1 998 45 3 Image Chart
2019 12 23 12 10.4 130.7 996 50 4 Image Chart
2019 12 23 18 10.5 129.1 992 55 4 Image Chart
2019 12 24 00 10.6 127.8 985 65 5 Image Chart
2019 12 24 06 10.9 126.4 980 70 5 Image Chart
2019 12 24 12 11.4 124.9 975 75 5 Image Chart
2019 12 24 18 11.8 123.4 970 80 5 Image Chart
2019 12 25 00 11.9 122.4 975 75 5 Image Chart
2019 12 25 06 12.1 121.3 980 70 5 Image Chart
2019 12 25 12 12.5 120.1 985 65 5 Image Chart
2019 12 25 18 12.8 119.3 992 55 4 Image Chart
2019 12 26 00 13.1 118.6 985 65 5 Image Chart
2019 12 26 06 13.4 118.0 975 75 5 Image Chart
2019 12 26 12 13.9 117.7 985 65 5 Image Chart
2019 12 26 18 14.3 117.2 990 60 4 Image Chart
2019 12 27 00 14.5 116.9 992 55 4 Image Chart
2019 12 27 06 14.7 116.5 996 50 4 Image Chart
2019 12 27 12 14.6 116.0 998 45 3 Image Chart
2019 12 27 18 14.5 115.7 1002 35 3 Image Chart
2019 12 28 00 14.4 115.2 1006 0 2 Image Chart
2019 12 28 06 14.4 114.0 1008 0 2 Image Chart
2019 12 28 12 14.4 113.0 1010 0 2 Image Chart
2019 12 28 18 14.4 112.2 1012 0 2 Image Chart
2019 12 29 00 14.3 111.7 1012 0 2 Image Chart
Japan Meteorological Agency Best Track Data | Correction Date : 2020-01-26
< Typhoon 201928 2019 Season Typhoon 202001 >

Help